Dorchester, Wisconsin
Current Conditions -  °F | °C
As of 2:35 PM on Thursday 23 Oct 2014 (Local Time) from KMDZ Reporting Station
Haze Haze  
Wind Chill: 43°   Ceiling: 400
Heat Index: 45°   Visibility: 3mi
Dew Point: 44°   Wind: 5mph
Humidity: 97%   Direction: 160°SSE
Pressure: 30.01"   Gusts: NA
Location:  45°N, 90.34°W
Report Text: KMDZ 231935Z AUTO 16004KT 3SM BR OVC004 07/07 A3001 RMK AO2 T00730069
Loading
Personal Weather Stations






























Interactive Weather Map
Tropical Storm Tracking
New forecast layout! Learn more

10-Day Weather Forecast

Advertisements
Track Severe Weather on mobile